sensor_id;sensor_type;location;lat;lon;timestamp;temperature;humidity
62575;DHT22;70119;45.638;11.714;2024-02-23T00:01:40;7.60;64.60
62575;DHT22;70119;45.638;11.714;2024-02-23T00:04:06;7.60;64.90
62575;DHT22;70119;45.638;11.714;2024-02-23T00:06:34;7.60;64.50
62575;DHT22;70119;45.638;11.714;2024-02-23T00:09:00;7.60;64.80
62575;DHT22;70119;45.638;11.714;2024-02-23T00:11:26;7.50;65.30
62575;DHT22;70119;45.638;11.714;2024-02-23T00:13:53;7.50;64.80
62575;DHT22;70119;45.638;11.714;2024-02-23T00:16:19;7.30;66.10
62575;DHT22;70119;45.638;11.714;2024-02-23T00:18:45;7.40;65.30
62575;DHT22;70119;45.638;11.714;2024-02-23T00:21:11;7.20;66.40
62575;DHT22;70119;45.638;11.714;2024-02-23T00:23:37;7.40;65.90
62575;DHT22;70119;45.638;11.714;2024-02-23T00:26:03;7.40;65.60
62575;DHT22;70119;45.638;11.714;2024-02-23T00:28:29;7.50;65.20
62575;DHT22;70119;45.638;11.714;2024-02-23T00:30:55;7.60;64.90
62575;DHT22;70119;45.638;11.714;2024-02-23T00:33:20;7.70;64.60
62575;DHT22;70119;45.638;11.714;2024-02-23T00:35:46;7.50;65.30
62575;DHT22;70119;45.638;11.714;2024-02-23T00:38:12;7.40;65.40
62575;DHT22;70119;45.638;11.714;2024-02-23T00:40:38;7.50;65.00
62575;DHT22;70119;45.638;11.714;2024-02-23T00:43:04;7.40;65.50
62575;DHT22;70119;45.638;11.714;2024-02-23T00:45:30;7.20;66.40
62575;DHT22;70119;45.638;11.714;2024-02-23T00:47:56;7.20;66.20
62575;DHT22;70119;45.638;11.714;2024-02-23T00:50:24;7.10;66.50
62575;DHT22;70119;45.638;11.714;2024-02-23T00:52:53;7.10;67.00
62575;DHT22;70119;45.638;11.714;2024-02-23T00:55:19;7.10;66.50
62575;DHT22;70119;45.638;11.714;2024-02-23T00:57:45;7.20;66.20
62575;DHT22;70119;45.638;11.714;2024-02-23T01:00:11;7.30;65.70
62575;DHT22;70119;45.638;11.714;2024-02-23T01:02:38;7.30;65.80
62575;DHT22;70119;45.638;11.714;2024-02-23T01:05:05;7.30;65.60
62575;DHT22;70119;45.638;11.714;2024-02-23T01:07:31;7.30;65.80
62575;DHT22;70119;45.638;11.714;2024-02-23T01:09:57;7.20;66.00
62575;DHT22;70119;45.638;11.714;2024-02-23T01:12:24;7.30;65.90
62575;DHT22;70119;45.638;11.714;2024-02-23T01:14:50;7.40;65.10
62575;DHT22;70119;45.638;11.714;2024-02-23T01:17:16;7.40;65.70
62575;DHT22;70119;45.638;11.714;2024-02-23T01:19:43;7.20;65.80
62575;DHT22;70119;45.638;11.714;2024-02-23T01:22:10;7.00;67.10
62575;DHT22;70119;45.638;11.714;2024-02-23T01:24:36;7.10;66.40
62575;DHT22;70119;45.638;11.714;2024-02-23T01:27:02;7.00;67.00
62575;DHT22;70119;45.638;11.714;2024-02-23T01:29:28;7.10;66.70
62575;DHT22;70119;45.638;11.714;2024-02-23T01:31:54;7.20;65.90
62575;DHT22;70119;45.638;11.714;2024-02-23T01:34:20;7.30;65.80
62575;DHT22;70119;45.638;11.714;2024-02-23T01:36:47;7.30;65.60
62575;DHT22;70119;45.638;11.714;2024-02-23T01:39:13;7.40;65.30
62575;DHT22;70119;45.638;11.714;2024-02-23T01:41:39;7.40;65.40
62575;DHT22;70119;45.638;11.714;2024-02-23T01:44:05;7.40;65.50
62575;DHT22;70119;45.638;11.714;2024-02-23T01:46:31;7.20;65.60
62575;DHT22;70119;45.638;11.714;2024-02-23T01:48:58;7.20;65.80
62575;DHT22;70119;45.638;11.714;2024-02-23T01:51:24;7.20;65.90
62575;DHT22;70119;45.638;11.714;2024-02-23T01:53:51;7.30;65.40
62575;DHT22;70119;45.638;11.714;2024-02-23T01:56:17;7.10;66.10
62575;DHT22;70119;45.638;11.714;2024-02-23T01:58:43;7.30;65.30
62575;DHT22;70119;45.638;11.714;2024-02-23T02:01:10;7.20;65.70
62575;DHT22;70119;45.638;11.714;2024-02-23T02:03:39;7.10;66.40
62575;DHT22;70119;45.638;11.714;2024-02-23T02:06:06;7.00;66.60
62575;DHT22;70119;45.638;11.714;2024-02-23T02:08:35;7.10;66.10
62575;DHT22;70119;45.638;11.714;2024-02-23T02:11:01;7.10;66.00
62575;DHT22;70119;45.638;11.714;2024-02-23T02:13:30;7.20;65.70
62575;DHT22;70119;45.638;11.714;2024-02-23T02:16:01;7.10;66.30
62575;DHT22;70119;45.638;11.714;2024-02-23T02:18:27;7.20;65.90
62575;DHT22;70119;45.638;11.714;2024-02-23T02:20:55;6.90;66.70
62575;DHT22;70119;45.638;11.714;2024-02-23T02:23:22;6.90;66.80
62575;DHT22;70119;45.638;11.714;2024-02-23T02:25:55;7.00;66.20
62575;DHT22;70119;45.638;11.714;2024-02-23T02:28:23;7.10;66.10
62575;DHT22;70119;45.638;11.714;2024-02-23T02:30:50;7.10;66.00
62575;DHT22;70119;45.638;11.714;2024-02-23T02:33:16;7.10;66.00
62575;DHT22;70119;45.638;11.714;2024-02-23T02:35:42;7.20;65.40
62575;DHT22;70119;45.638;11.714;2024-02-23T02:38:08;7.00;66.40
62575;DHT22;70119;45.638;11.714;2024-02-23T02:40:35;6.90;66.80
62575;DHT22;70119;45.638;11.714;2024-02-23T02:43:01;7.10;65.80
62575;DHT22;70119;45.638;11.714;2024-02-23T02:45:27;7.10;66.00
62575;DHT22;70119;45.638;11.714;2024-02-23T02:47:53;7.10;66.30
62575;DHT22;70119;45.638;11.714;2024-02-23T02:50:19;7.30;65.30
62575;DHT22;70119;45.638;11.714;2024-02-23T02:52:45;7.20;65.70
62575;DHT22;70119;45.638;11.714;2024-02-23T02:55:10;7.10;65.90
62575;DHT22;70119;45.638;11.714;2024-02-23T02:57:36;7.20;65.90
62575;DHT22;70119;45.638;11.714;2024-02-23T03:00:03;7.30;65.40
62575;DHT22;70119;45.638;11.714;2024-02-23T03:02:35;7.10;66.30
62575;DHT22;70119;45.638;11.714;2024-02-23T03:05:01;7.30;65.70
62575;DHT22;70119;45.638;11.714;2024-02-23T03:07:27;7.40;65.00
62575;DHT22;70119;45.638;11.714;2024-02-23T03:09:52;7.20;65.50
62575;DHT22;70119;45.638;11.714;2024-02-23T03:12:19;7.20;65.80
62575;DHT22;70119;45.638;11.714;2024-02-23T03:14:45;7.20;65.70
62575;DHT22;70119;45.638;11.714;2024-02-23T03:17:11;6.60;67.90
62575;DHT22;70119;45.638;11.714;2024-02-23T03:19:38;7.10;66.90
62575;DHT22;70119;45.638;11.714;2024-02-23T03:22:04;7.10;66.50
62575;DHT22;70119;45.638;11.714;2024-02-23T03:24:30;7.00;67.20
62575;DHT22;70119;45.638;11.714;2024-02-23T03:26:56;6.80;67.80
62575;DHT22;70119;45.638;11.714;2024-02-23T03:29:23;6.80;67.40
62575;DHT22;70119;45.638;11.714;2024-02-23T03:31:55;6.70;67.90
62575;DHT22;70119;45.638;11.714;2024-02-23T03:34:21;6.70;68.00
62575;DHT22;70119;45.638;11.714;2024-02-23T03:36:47;6.80;68.10
62575;DHT22;70119;45.638;11.714;2024-02-23T03:39:13;6.70;68.10
62575;DHT22;70119;45.638;11.714;2024-02-23T03:41:39;6.90;67.60
62575;DHT22;70119;45.638;11.714;2024-02-23T03:44:05;7.00;67.20
62575;DHT22;70119;45.638;11.714;2024-02-23T03:46:31;7.00;66.90
62575;DHT22;70119;45.638;11.714;2024-02-23T03:48:57;7.00;67.10
62575;DHT22;70119;45.638;11.714;2024-02-23T03:51:23;7.10;66.40
62575;DHT22;70119;45.638;11.714;2024-02-23T03:53:49;7.00;67.10
62575;DHT22;70119;45.638;11.714;2024-02-23T03:56:16;6.80;67.40
62575;DHT22;70119;45.638;11.714;2024-02-23T03:58:42;6.90;67.40
62575;DHT22;70119;45.638;11.714;2024-02-23T04:01:07;6.90;67.20
62575;DHT22;70119;45.638;11.714;2024-02-23T04:03:34;6.80;67.10
62575;DHT22;70119;45.638;11.714;2024-02-23T04:06:00;6.80;67.50
62575;DHT22;70119;45.638;11.714;2024-02-23T04:08:26;7.20;66.00
62575;DHT22;70119;45.638;11.714;2024-02-23T04:10:51;6.90;67.40
62575;DHT22;70119;45.638;11.714;2024-02-23T04:13:17;7.00;67.30
62575;DHT22;70119;45.638;11.714;2024-02-23T04:15:44;7.00;67.40
62575;DHT22;70119;45.638;11.714;2024-02-23T04:18:09;7.10;66.70
62575;DHT22;70119;45.638;11.714;2024-02-23T04:20:35;7.10;67.00
62575;DHT22;70119;45.638;11.714;2024-02-23T04:23:01;7.10;66.80
62575;DHT22;70119;45.638;11.714;2024-02-23T04:25:27;7.10;67.10
62575;DHT22;70119;45.638;11.714;2024-02-23T04:27:53;7.10;66.80
62575;DHT22;70119;45.638;11.714;2024-02-23T04:30:19;7.10;67.20
62575;DHT22;70119;45.638;11.714;2024-02-23T04:32:45;7.10;66.90
62575;DHT22;70119;45.638;11.714;2024-02-23T04:35:11;7.00;67.60
62575;DHT22;70119;45.638;11.714;2024-02-23T04:37:37;7.20;66.40
62575;DHT22;70119;45.638;11.714;2024-02-23T04:40:05;7.30;66.20
62575;DHT22;70119;45.638;11.714;2024-02-23T04:42:31;7.30;65.90
62575;DHT22;70119;45.638;11.714;2024-02-23T04:44:57;7.30;65.90
62575;DHT22;70119;45.638;11.714;2024-02-23T04:47:23;7.40;65.60
62575;DHT22;70119;45.638;11.714;2024-02-23T04:49:50;7.40;65.80
62575;DHT22;70119;45.638;11.714;2024-02-23T04:52:16;7.50;65.20
62575;DHT22;70119;45.638;11.714;2024-02-23T04:54:42;7.50;65.60
62575;DHT22;70119;45.638;11.714;2024-02-23T04:57:08;7.50;65.70
62575;DHT22;70119;45.638;11.714;2024-02-23T04:59:35;7.50;65.60
62575;DHT22;70119;45.638;11.714;2024-02-23T05:02:01;7.50;65.50
62575;DHT22;70119;45.638;11.714;2024-02-23T05:04:27;7.40;65.60
62575;DHT22;70119;45.638;11.714;2024-02-23T05:06:54;7.40;65.80
62575;DHT22;70119;45.638;11.714;2024-02-23T05:09:20;7.30;66.20
62575;DHT22;70119;45.638;11.714;2024-02-23T05:11:46;7.30;66.20
62575;DHT22;70119;45.638;11.714;2024-02-23T05:14:13;7.40;65.90
62575;DHT22;70119;45.638;11.714;2024-02-23T05:16:39;7.40;65.90
62575;DHT22;70119;45.638;11.714;2024-02-23T05:19:05;7.40;65.80
62575;DHT22;70119;45.638;11.714;2024-02-23T05:21:31;7.50;65.50
62575;DHT22;70119;45.638;11.714;2024-02-23T05:23:57;7.50;65.80
62575;DHT22;70119;45.638;11.714;2024-02-23T05:26:22;7.50;65.40
62575;DHT22;70119;45.638;11.714;2024-02-23T05:28:49;7.40;66.10
62575;DHT22;70119;45.638;11.714;2024-02-23T05:31:15;7.30;66.50
62575;DHT22;70119;45.638;11.714;2024-02-23T05:33:40;7.30;66.90
62575;DHT22;70119;45.638;11.714;2024-02-23T05:36:07;7.30;66.90
62575;DHT22;70119;45.638;11.714;2024-02-23T05:38:33;7.40;66.60
62575;DHT22;70119;45.638;11.714;2024-02-23T05:41:00;7.30;66.80
62575;DHT22;70119;45.638;11.714;2024-02-23T05:43:27;7.20;67.10
62575;DHT22;70119;45.638;11.714;2024-02-23T05:45:53;7.40;66.70
62575;DHT22;70119;45.638;11.714;2024-02-23T05:48:23;7.30;67.30
62575;DHT22;70119;45.638;11.714;2024-02-23T05:50:49;7.40;66.90
62575;DHT22;70119;45.638;11.714;2024-02-23T05:53:15;7.40;66.70
62575;DHT22;70119;45.638;11.714;2024-02-23T05:55:40;7.10;68.20
62575;DHT22;70119;45.638;11.714;2024-02-23T05:58:06;7.40;66.90
62575;DHT22;70119;45.638;11.714;2024-02-23T06:00:32;7.30;67.40
62575;DHT22;70119;45.638;11.714;2024-02-23T06:03:00;7.30;67.10
62575;DHT22;70119;45.638;11.714;2024-02-23T06:05:29;7.40;67.20
62575;DHT22;70119;45.638;11.714;2024-02-23T06:07:55;7.30;67.40
62575;DHT22;70119;45.638;11.714;2024-02-23T06:10:24;7.20;68.10
62575;DHT22;70119;45.638;11.714;2024-02-23T06:12:52;7.30;67.70
62575;DHT22;70119;45.638;11.714;2024-02-23T06:15:18;7.50;67.10
62575;DHT22;70119;45.638;11.714;2024-02-23T06:17:43;7.50;66.50
62575;DHT22;70119;45.638;11.714;2024-02-23T06:20:12;7.50;66.50
62575;DHT22;70119;45.638;11.714;2024-02-23T06:22:38;7.70;66.20
62575;DHT22;70119;45.638;11.714;2024-02-23T06:25:04;7.60;66.40
62575;DHT22;70119;45.638;11.714;2024-02-23T06:27:30;7.80;65.50
62575;DHT22;70119;45.638;11.714;2024-02-23T06:29:56;7.80;65.50
62575;DHT22;70119;45.638;11.714;2024-02-23T06:32:22;7.70;66.30
62575;DHT22;70119;45.638;11.714;2024-02-23T06:34:48;7.40;67.60
62575;DHT22;70119;45.638;11.714;2024-02-23T06:37:13;7.50;67.00
62575;DHT22;70119;45.638;11.714;2024-02-23T06:39:39;7.70;65.90
62575;DHT22;70119;45.638;11.714;2024-02-23T06:42:05;7.70;66.00
62575;DHT22;70119;45.638;11.714;2024-02-23T06:44:31;7.80;65.70
62575;DHT22;70119;45.638;11.714;2024-02-23T06:46:57;7.60;66.10
62575;DHT22;70119;45.638;11.714;2024-02-23T06:49:23;7.80;65.50
62575;DHT22;70119;45.638;11.714;2024-02-23T06:51:49;7.80;65.20
62575;DHT22;70119;45.638;11.714;2024-02-23T06:54:14;7.90;65.20
62575;DHT22;70119;45.638;11.714;2024-02-23T06:56:40;7.90;64.70
62575;DHT22;70119;45.638;11.714;2024-02-23T06:59:06;7.90;65.10
62575;DHT22;70119;45.638;11.714;2024-02-23T07:01:32;8.00;65.00
62575;DHT22;70119;45.638;11.714;2024-02-23T07:04:00;7.90;64.90
62575;DHT22;70119;45.638;11.714;2024-02-23T07:06:26;7.90;65.20
62575;DHT22;70119;45.638;11.714;2024-02-23T07:08:54;7.80;65.60
62575;DHT22;70119;45.638;11.714;2024-02-23T07:11:20;7.90;65.10
62575;DHT22;70119;45.638;11.714;2024-02-23T07:13:46;8.00;64.90
62575;DHT22;70119;45.638;11.714;2024-02-23T07:16:12;7.80;65.60
62575;DHT22;70119;45.638;11.714;2024-02-23T07:18:38;7.90;65.40
62575;DHT22;70119;45.638;11.714;2024-02-23T07:21:03;7.90;65.10
62575;DHT22;70119;45.638;11.714;2024-02-23T07:23:29;8.00;64.90
62575;DHT22;70119;45.638;11.714;2024-02-23T07:25:55;7.90;65.00
62575;DHT22;70119;45.638;11.714;2024-02-23T07:28:21;7.80;65.50
62575;DHT22;70119;45.638;11.714;2024-02-23T07:30:48;7.90;65.60
62575;DHT22;70119;45.638;11.714;2024-02-23T07:33:14;7.90;64.90
62575;DHT22;70119;45.638;11.714;2024-02-23T07:35:40;8.00;65.30
62575;DHT22;70119;45.638;11.714;2024-02-23T07:38:06;7.90;65.00
62575;DHT22;70119;45.638;11.714;2024-02-23T07:40:31;8.00;64.70
62575;DHT22;70119;45.638;11.714;2024-02-23T07:42:57;8.10;64.70
62575;DHT22;70119;45.638;11.714;2024-02-23T07:45:24;8.10;64.60
62575;DHT22;70119;45.638;11.714;2024-02-23T07:47:53;8.10;64.70
62575;DHT22;70119;45.638;11.714;2024-02-23T07:50:24;8.10;64.50
62575;DHT22;70119;45.638;11.714;2024-02-23T07:52:52;8.10;64.40
62575;DHT22;70119;45.638;11.714;2024-02-23T07:55:18;8.10;64.60
62575;DHT22;70119;45.638;11.714;2024-02-23T07:57:44;8.00;65.10
62575;DHT22;70119;45.638;11.714;2024-02-23T08:00:10;7.90;65.60
62575;DHT22;70119;45.638;11.714;2024-02-23T08:02:39;7.90;65.70
62575;DHT22;70119;45.638;11.714;2024-02-23T08:05:09;7.90;65.90
62575;DHT22;70119;45.638;11.714;2024-02-23T08:07:36;7.80;66.30
62575;DHT22;70119;45.638;11.714;2024-02-23T08:10:02;7.90;66.20
62575;DHT22;70119;45.638;11.714;2024-02-23T08:12:30;7.90;66.20
62575;DHT22;70119;45.638;11.714;2024-02-23T08:14:57;7.70;67.30
62575;DHT22;70119;45.638;11.714;2024-02-23T08:17:24;7.80;66.30
62575;DHT22;70119;45.638;11.714;2024-02-23T08:19:50;7.90;66.40
62575;DHT22;70119;45.638;11.714;2024-02-23T08:22:16;7.90;66.30
62575;DHT22;70119;45.638;11.714;2024-02-23T08:24:42;7.90;66.30
62575;DHT22;70119;45.638;11.714;2024-02-23T08:27:08;7.90;66.50
62575;DHT22;70119;45.638;11.714;2024-02-23T08:29:37;8.00;66.00
62575;DHT22;70119;45.638;11.714;2024-02-23T08:32:04;8.10;65.90
62575;DHT22;70119;45.638;11.714;2024-02-23T08:34:30;8.00;66.30
62575;DHT22;70119;45.638;11.714;2024-02-23T08:36:58;8.10;66.00
62575;DHT22;70119;45.638;11.714;2024-02-23T08:39:24;8.10;66.00
62575;DHT22;70119;45.638;11.714;2024-02-23T08:41:50;8.10;65.70
62575;DHT22;70119;45.638;11.714;2024-02-23T08:44:17;8.10;65.80
62575;DHT22;70119;45.638;11.714;2024-02-23T08:46:44;8.10;66.10
62575;DHT22;70119;45.638;11.714;2024-02-23T08:49:14;8.10;66.20
62575;DHT22;70119;45.638;11.714;2024-02-23T08:51:40;8.00;66.30
62575;DHT22;70119;45.638;11.714;2024-02-23T08:54:08;8.00;66.40
62575;DHT22;70119;45.638;11.714;2024-02-23T08:56:38;8.10;66.20
62575;DHT22;70119;45.638;11.714;2024-02-23T08:59:05;8.10;65.80
62575;DHT22;70119;45.638;11.714;2024-02-23T09:01:30;8.10;66.00
62575;DHT22;70119;45.638;11.714;2024-02-23T09:03:56;8.10;66.10
62575;DHT22;70119;45.638;11.714;2024-02-23T09:06:23;8.00;66.10
62575;DHT22;70119;45.638;11.714;2024-02-23T09:08:51;8.10;66.40
62575;DHT22;70119;45.638;11.714;2024-02-23T09:11:17;7.90;66.70
62575;DHT22;70119;45.638;11.714;2024-02-23T09:13:43;7.90;67.20
62575;DHT22;70119;45.638;11.714;2024-02-23T09:16:09;7.90;67.00
62575;DHT22;70119;45.638;11.714;2024-02-23T09:18:35;7.70;68.00
62575;DHT22;70119;45.638;11.714;2024-02-23T09:21:01;7.90;67.10
62575;DHT22;70119;45.638;11.714;2024-02-23T09:23:27;8.00;67.10
62575;DHT22;70119;45.638;11.714;2024-02-23T09:25:53;7.90;67.30
62575;DHT22;70119;45.638;11.714;2024-02-23T09:28:19;8.10;66.50
62575;DHT22;70119;45.638;11.714;2024-02-23T09:30:46;8.00;67.10
62575;DHT22;70119;45.638;11.714;2024-02-23T09:33:12;8.10;66.80
62575;DHT22;70119;45.638;11.714;2024-02-23T09:35:38;8.10;66.70
62575;DHT22;70119;45.638;11.714;2024-02-23T09:38:04;8.20;66.20
62575;DHT22;70119;45.638;11.714;2024-02-23T09:40:30;8.00;67.10
62575;DHT22;70119;45.638;11.714;2024-02-23T09:42:57;8.00;67.00
62575;DHT22;70119;45.638;11.714;2024-02-23T09:45:27;8.10;66.90
62575;DHT22;70119;45.638;11.714;2024-02-23T09:47:57;8.20;66.40
62575;DHT22;70119;45.638;11.714;2024-02-23T09:50:24;8.40;66.10
62575;DHT22;70119;45.638;11.714;2024-02-23T09:52:50;8.10;67.00
62575;DHT22;70119;45.638;11.714;2024-02-23T09:55:22;8.20;66.60
62575;DHT22;70119;45.638;11.714;2024-02-23T09:57:50;8.30;66.40
62575;DHT22;70119;45.638;11.714;2024-02-23T10:00:21;8.10;66.90
62575;DHT22;70119;45.638;11.714;2024-02-23T10:02:47;8.30;65.90
62575;DHT22;70119;45.638;11.714;2024-02-23T10:05:15;8.30;66.60
62575;DHT22;70119;45.638;11.714;2024-02-23T10:07:42;8.40;66.00
62575;DHT22;70119;45.638;11.714;2024-02-23T10:10:10;8.40;65.60
62575;DHT22;70119;45.638;11.714;2024-02-23T10:12:39;8.30;66.00
62575;DHT22;70119;45.638;11.714;2024-02-23T10:15:05;8.40;65.90
62575;DHT22;70119;45.638;11.714;2024-02-23T10:17:32;8.40;65.60
62575;DHT22;70119;45.638;11.714;2024-02-23T10:19:59;8.50;65.50
62575;DHT22;70119;45.638;11.714;2024-02-23T10:22:30;8.60;65.30
62575;DHT22;70119;45.638;11.714;2024-02-23T10:24:56;8.60;65.10
62575;DHT22;70119;45.638;11.714;2024-02-23T10:27:23;8.60;65.30
62575;DHT22;70119;45.638;11.714;2024-02-23T10:29:50;8.50;65.30
62575;DHT22;70119;45.638;11.714;2024-02-23T10:32:19;8.60;65.10
62575;DHT22;70119;45.638;11.714;2024-02-23T10:34:48;8.60;65.30
62575;DHT22;70119;45.638;11.714;2024-02-23T10:37:15;8.60;65.20
62575;DHT22;70119;45.638;11.714;2024-02-23T10:39:43;8.60;65.10
62575;DHT22;70119;45.638;11.714;2024-02-23T10:42:12;8.50;65.20
62575;DHT22;70119;45.638;11.714;2024-02-23T10:44:39;8.60;65.20
62575;DHT22;70119;45.638;11.714;2024-02-23T10:47:07;8.60;64.90
62575;DHT22;70119;45.638;11.714;2024-02-23T10:49:33;8.70;64.90
62575;DHT22;70119;45.638;11.714;2024-02-23T10:52:00;8.70;65.10
62575;DHT22;70119;45.638;11.714;2024-02-23T10:54:27;8.80;64.40
62575;DHT22;70119;45.638;11.714;2024-02-23T10:56:54;8.80;64.80
62575;DHT22;70119;45.638;11.714;2024-02-23T10:59:22;8.80;64.40
62575;DHT22;70119;45.638;11.714;2024-02-23T11:01:49;8.80;64.50
62575;DHT22;70119;45.638;11.714;2024-02-23T11:04:17;8.80;64.70
62575;DHT22;70119;45.638;11.714;2024-02-23T11:06:48;8.70;64.40
62575;DHT22;70119;45.638;11.714;2024-02-23T11:09:14;8.60;65.40
62575;DHT22;70119;45.638;11.714;2024-02-23T11:11:54;8.60;65.10
62575;DHT22;70119;45.638;11.714;2024-02-23T11:14:34;8.50;65.60
62575;DHT22;70119;45.638;11.714;2024-02-23T11:17:01;8.50;65.60
62575;DHT22;70119;45.638;11.714;2024-02-23T11:19:34;8.60;65.70
62575;DHT22;70119;45.638;11.714;2024-02-23T11:22:01;8.60;65.50
62575;DHT22;70119;45.638;11.714;2024-02-23T11:24:32;8.60;65.50
62575;DHT22;70119;45.638;11.714;2024-02-23T11:27:01;8.70;65.00
62575;DHT22;70119;45.638;11.714;2024-02-23T11:29:36;8.70;64.80
62575;DHT22;70119;45.638;11.714;2024-02-23T11:32:16;8.80;64.40
62575;DHT22;70119;45.638;11.714;2024-02-23T11:34:55;8.80;64.80
62575;DHT22;70119;45.638;11.714;2024-02-23T11:37:22;8.70;64.90
62575;DHT22;70119;45.638;11.714;2024-02-23T11:39:48;8.60;65.30
62575;DHT22;70119;45.638;11.714;2024-02-23T11:42:15;8.40;65.90
62575;DHT22;70119;45.638;11.714;2024-02-23T11:44:43;8.40;66.00
62575;DHT22;70119;45.638;11.714;2024-02-23T11:47:09;7.60;68.90
62575;DHT22;70119;45.638;11.714;2024-02-23T11:49:35;7.50;69.20
62575;DHT22;70119;45.638;11.714;2024-02-23T11:52:01;8.00;67.90
62575;DHT22;70119;45.638;11.714;2024-02-23T11:54:28;8.20;67.20
62575;DHT22;70119;45.638;11.714;2024-02-23T11:56:54;8.40;66.50
62575;DHT22;70119;45.638;11.714;2024-02-23T11:59:21;8.30;66.70
62575;DHT22;70119;45.638;11.714;2024-02-23T12:01:49;8.20;66.60
62575;DHT22;70119;45.638;11.714;2024-02-23T12:04:15;8.40;66.60
62575;DHT22;70119;45.638;11.714;2024-02-23T12:06:42;8.50;65.90
62575;DHT22;70119;45.638;11.714;2024-02-23T12:09:09;8.60;65.80
62575;DHT22;70119;45.638;11.714;2024-02-23T12:11:35;8.70;65.30
62575;DHT22;70119;45.638;11.714;2024-02-23T12:14:01;8.80;64.80
62575;DHT22;70119;45.638;11.714;2024-02-23T12:16:34;8.70;65.20
62575;DHT22;70119;45.638;11.714;2024-02-23T12:19:04;8.60;65.50
62575;DHT22;70119;45.638;11.714;2024-02-23T12:21:53;8.60;65.90
62575;DHT22;70119;45.638;11.714;2024-02-23T12:24:20;8.50;66.10
62575;DHT22;70119;45.638;11.714;2024-02-23T12:26:56;8.60;65.80
62575;DHT22;70119;45.638;11.714;2024-02-23T12:29:22;8.70;65.10
62575;DHT22;70119;45.638;11.714;2024-02-23T12:31:48;8.80;64.70
62575;DHT22;70119;45.638;11.714;2024-02-23T12:34:14;8.80;64.90
62575;DHT22;70119;45.638;11.714;2024-02-23T12:36:40;8.80;65.00
62575;DHT22;70119;45.638;11.714;2024-02-23T12:39:06;8.70;65.10
62575;DHT22;70119;45.638;11.714;2024-02-23T12:41:32;8.70;65.00
62575;DHT22;70119;45.638;11.714;2024-02-23T12:43:59;8.70;65.10
62575;DHT22;70119;45.638;11.714;2024-02-23T12:46:26;8.70;64.90
62575;DHT22;70119;45.638;11.714;2024-02-23T12:48:55;8.70;65.30
62575;DHT22;70119;45.638;11.714;2024-02-23T12:51:26;8.60;64.70
62575;DHT22;70119;45.638;11.714;2024-02-23T12:53:54;8.30;66.70
62575;DHT22;70119;45.638;11.714;2024-02-23T12:56:21;8.20;66.70
62575;DHT22;70119;45.638;11.714;2024-02-23T12:58:48;7.90;68.30
62575;DHT22;70119;45.638;11.714;2024-02-23T13:01:16;8.00;67.80
62575;DHT22;70119;45.638;11.714;2024-02-23T13:03:42;8.20;67.40
62575;DHT22;70119;45.638;11.714;2024-02-23T13:06:08;8.40;66.50
62575;DHT22;70119;45.638;11.714;2024-02-23T13:08:34;8.50;66.30
62575;DHT22;70119;45.638;11.714;2024-02-23T13:11:05;8.60;65.80
62575;DHT22;70119;45.638;11.714;2024-02-23T13:13:37;8.50;66.30
62575;DHT22;70119;45.638;11.714;2024-02-23T13:16:03;8.70;65.50
62575;DHT22;70119;45.638;11.714;2024-02-23T13:18:29;8.70;65.50
62575;DHT22;70119;45.638;11.714;2024-02-23T13:20:55;8.50;66.10
62575;DHT22;70119;45.638;11.714;2024-02-23T13:23:21;8.70;65.60
62575;DHT22;70119;45.638;11.714;2024-02-23T13:25:47;8.70;65.60
62575;DHT22;70119;45.638;11.714;2024-02-23T13:28:13;8.80;65.10
62575;DHT22;70119;45.638;11.714;2024-02-23T13:30:38;8.90;64.90
62575;DHT22;70119;45.638;11.714;2024-02-23T13:33:06;8.70;65.80
62575;DHT22;70119;45.638;11.714;2024-02-23T13:35:33;8.40;67.00
62575;DHT22;70119;45.638;11.714;2024-02-23T13:38:00;8.30;67.60
62575;DHT22;70119;45.638;11.714;2024-02-23T13:40:29;7.70;69.30
62575;DHT22;70119;45.638;11.714;2024-02-23T13:42:57;7.60;70.10
62575;DHT22;70119;45.638;11.714;2024-02-23T13:45:24;8.10;68.80
62575;DHT22;70119;45.638;11.714;2024-02-23T13:48:00;8.40;66.60
62575;DHT22;70119;45.638;11.714;2024-02-23T13:50:26;8.40;65.70
62575;DHT22;70119;45.638;11.714;2024-02-23T13:52:57;7.90;65.90
62575;DHT22;70119;45.638;11.714;2024-02-23T13:55:28;8.20;65.00
62575;DHT22;70119;45.638;11.714;2024-02-23T13:57:58;8.00;63.90
62575;DHT22;70119;45.638;11.714;2024-02-23T14:00:24;7.80;64.70
62575;DHT22;70119;45.638;11.714;2024-02-23T14:02:50;7.90;64.70
62575;DHT22;70119;45.638;11.714;2024-02-23T14:05:16;8.30;64.70
62575;DHT22;70119;45.638;11.714;2024-02-23T14:07:43;8.40;64.30
62575;DHT22;70119;45.638;11.714;2024-02-23T14:10:09;8.60;63.90
62575;DHT22;70119;45.638;11.714;2024-02-23T14:12:35;8.70;63.90
62575;DHT22;70119;45.638;11.714;2024-02-23T14:15:01;8.70;63.90
62575;DHT22;70119;45.638;11.714;2024-02-23T14:17:27;8.60;64.20
62575;DHT22;70119;45.638;11.714;2024-02-23T14:19:53;8.80;63.90
62575;DHT22;70119;45.638;11.714;2024-02-23T14:22:19;8.90;63.20
62575;DHT22;70119;45.638;11.714;2024-02-23T14:24:45;9.00;62.70
62575;DHT22;70119;45.638;11.714;2024-02-23T14:27:11;9.10;62.40
62575;DHT22;70119;45.638;11.714;2024-02-23T14:29:38;9.10;62.00
62575;DHT22;70119;45.638;11.714;2024-02-23T14:32:05;9.20;61.80
62575;DHT22;70119;45.638;11.714;2024-02-23T14:34:31;9.10;61.80
62575;DHT22;70119;45.638;11.714;2024-02-23T14:36:59;9.10;61.70
62575;DHT22;70119;45.638;11.714;2024-02-23T14:39:25;9.20;61.40
62575;DHT22;70119;45.638;11.714;2024-02-23T14:41:51;9.20;61.30
62575;DHT22;70119;45.638;11.714;2024-02-23T14:44:16;9.30;61.40
62575;DHT22;70119;45.638;11.714;2024-02-23T14:46:42;9.30;61.30
62575;DHT22;70119;45.638;11.714;2024-02-23T14:49:08;9.10;61.10
62575;DHT22;70119;45.638;11.714;2024-02-23T14:51:36;9.10;61.10
62575;DHT22;70119;45.638;11.714;2024-02-23T14:54:02;9.10;60.90
62575;DHT22;70119;45.638;11.714;2024-02-23T14:56:31;9.10;60.80
62575;DHT22;70119;45.638;11.714;2024-02-23T14:59:00;9.00;60.70
62575;DHT22;70119;45.638;11.714;2024-02-23T15:01:30;8.90;60.70
62575;DHT22;70119;45.638;11.714;2024-02-23T15:03:56;8.90;60.60
62575;DHT22;70119;45.638;11.714;2024-02-23T15:06:26;8.80;60.50
62575;DHT22;70119;45.638;11.714;2024-02-23T15:08:56;8.80;59.80
62575;DHT22;70119;45.638;11.714;2024-02-23T15:11:22;8.80;60.60
62575;DHT22;70119;45.638;11.714;2024-02-23T15:13:48;8.70;60.40
62575;DHT22;70119;45.638;11.714;2024-02-23T15:16:14;8.70;60.30
62575;DHT22;70119;45.638;11.714;2024-02-23T15:18:40;8.70;60.50
62575;DHT22;70119;45.638;11.714;2024-02-23T15:21:06;8.70;61.30
62575;DHT22;70119;45.638;11.714;2024-02-23T15:23:32;8.80;60.80
62575;DHT22;70119;45.638;11.714;2024-02-23T15:25:58;8.80;60.30
62575;DHT22;70119;45.638;11.714;2024-02-23T15:28:24;8.70;60.00